sensor_id;sensor_type;location;lat;lon;timestamp;P1;durP1;ratioP1;P2;durP2;ratioP2
5801;SDS011;2927;49.366;8.530;2023-08-24T00:01:15;7.50;;;4.27;;
5801;SDS011;2927;49.366;8.530;2023-08-24T00:03:41;7.77;;;4.07;;
5801;SDS011;2927;49.366;8.530;2023-08-24T00:06:11;4.40;;;3.77;;
5801;SDS011;2927;49.366;8.530;2023-08-24T00:08:40;8.23;;;4.20;;
5801;SDS011;2927;49.366;8.530;2023-08-24T00:11:05;6.00;;;4.53;;
5801;SDS011;2927;49.366;8.530;2023-08-24T00:13:32;4.50;;;3.63;;
5801;SDS011;2927;49.366;8.530;2023-08-24T00:15:58;6.00;;;4.10;;
5801;SDS011;2927;49.366;8.530;2023-08-24T00:18:24;4.37;;;3.90;;
5801;SDS011;2927;49.366;8.530;2023-08-24T00:20:50;8.33;;;4.77;;
5801;SDS011;2927;49.366;8.530;2023-08-24T00:23:16;6.10;;;4.57;;
5801;SDS011;2927;49.366;8.530;2023-08-24T00:25:42;6.10;;;4.80;;
5801;SDS011;2927;49.366;8.530;2023-08-24T00:28:07;4.30;;;3.60;;
5801;SDS011;2927;49.366;8.530;2023-08-24T00:30:33;4.60;;;3.87;;
5801;SDS011;2927;49.366;8.530;2023-08-24T00:32:58;4.97;;;4.43;;
5801;SDS011;2927;49.366;8.530;2023-08-24T00:35:24;4.27;;;3.70;;
5801;SDS011;2927;49.366;8.530;2023-08-24T00:37:49;3.90;;;3.60;;
5801;SDS011;2927;49.366;8.530;2023-08-24T00:40:15;3.90;;;3.50;;
5801;SDS011;2927;49.366;8.530;2023-08-24T00:42:42;4.70;;;3.40;;
5801;SDS011;2927;49.366;8.530;2023-08-24T00:45:09;3.90;;;3.43;;
5801;SDS011;2927;49.366;8.530;2023-08-24T00:47:39;5.57;;;3.57;;
5801;SDS011;2927;49.366;8.530;2023-08-24T00:50:06;4.50;;;3.23;;
5801;SDS011;2927;49.366;8.530;2023-08-24T00:52:33;4.23;;;3.73;;
5801;SDS011;2927;49.366;8.530;2023-08-24T00:54:59;7.67;;;3.60;;
5801;SDS011;2927;49.366;8.530;2023-08-24T00:57:26;3.80;;;3.20;;
5801;SDS011;2927;49.366;8.530;2023-08-24T00:59:52;10.87;;;3.87;;
5801;SDS011;2927;49.366;8.530;2023-08-24T01:02:18;4.30;;;3.90;;
5801;SDS011;2927;49.366;8.530;2023-08-24T01:04:44;7.20;;;4.00;;
5801;SDS011;2927;49.366;8.530;2023-08-24T01:07:11;5.80;;;4.30;;
5801;SDS011;2927;49.366;8.530;2023-08-24T01:09:38;5.53;;;3.57;;
5801;SDS011;2927;49.366;8.530;2023-08-24T01:17:46;4.87;;;3.13;;
5801;SDS011;2927;49.366;8.530;2023-08-24T01:20:12;4.90;;;4.40;;
5801;SDS011;2927;49.366;8.530;2023-08-24T01:25:23;5.20;;;4.50;;
5801;SDS011;2927;49.366;8.530;2023-08-24T01:27:58;8.20;;;4.77;;
5801;SDS011;2927;49.366;8.530;2023-08-24T01:30:25;4.70;;;4.30;;
5801;SDS011;2927;49.366;8.530;2023-08-24T01:32:51;6.73;;;5.37;;
5801;SDS011;2927;49.366;8.530;2023-08-24T01:35:17;7.97;;;5.00;;
5801;SDS011;2927;49.366;8.530;2023-08-24T01:37:42;12.00;;;5.27;;
5801;SDS011;2927;49.366;8.530;2023-08-24T01:40:55;6.50;;;5.47;;
5801;SDS011;2927;49.366;8.530;2023-08-24T01:43:11;5.80;;;4.10;;
5801;SDS011;2927;49.366;8.530;2023-08-24T01:45:38;6.60;;;5.07;;
5801;SDS011;2927;49.366;8.530;2023-08-24T01:48:07;5.23;;;4.83;;
5801;SDS011;2927;49.366;8.530;2023-08-24T01:50:34;5.07;;;4.43;;
5801;SDS011;2927;49.366;8.530;2023-08-24T01:53:01;5.87;;;5.37;;
5801;SDS011;2927;49.366;8.530;2023-08-24T01:55:28;6.20;;;4.70;;
5801;SDS011;2927;49.366;8.530;2023-08-24T01:57:54;7.17;;;4.73;;
5801;SDS011;2927;49.366;8.530;2023-08-24T02:00:20;4.57;;;4.17;;
5801;SDS011;2927;49.366;8.530;2023-08-24T02:02:46;11.37;;;4.93;;
5801;SDS011;2927;49.366;8.530;2023-08-24T02:05:12;5.60;;;4.50;;
5801;SDS011;2927;49.366;8.530;2023-08-24T02:07:38;4.50;;;4.10;;
5801;SDS011;2927;49.366;8.530;2023-08-24T02:10:05;10.83;;;4.60;;
5801;SDS011;2927;49.366;8.530;2023-08-24T02:12:30;10.33;;;4.97;;
5801;SDS011;2927;49.366;8.530;2023-08-24T02:14:56;6.90;;;4.03;;
5801;SDS011;2927;49.366;8.530;2023-08-24T02:17:21;4.20;;;3.83;;
5801;SDS011;2927;49.366;8.530;2023-08-24T02:19:47;6.17;;;5.20;;
5801;SDS011;2927;49.366;8.530;2023-08-24T02:22:13;5.60;;;4.73;;
5801;SDS011;2927;49.366;8.530;2023-08-24T02:24:38;5.57;;;5.07;;
5801;SDS011;2927;49.366;8.530;2023-08-24T02:27:04;5.13;;;4.60;;
5801;SDS011;2927;49.366;8.530;2023-08-24T02:29:30;6.73;;;4.90;;
5801;SDS011;2927;49.366;8.530;2023-08-24T02:31:55;5.60;;;5.00;;
5801;SDS011;2927;49.366;8.530;2023-08-24T02:34:21;6.87;;;5.03;;
5801;SDS011;2927;49.366;8.530;2023-08-24T02:36:46;8.20;;;5.50;;
5801;SDS011;2927;49.366;8.530;2023-08-24T02:39:12;9.40;;;4.83;;
5801;SDS011;2927;49.366;8.530;2023-08-24T02:41:37;10.67;;;6.00;;
5801;SDS011;2927;49.366;8.530;2023-08-24T02:44:03;8.07;;;5.27;;
5801;SDS011;2927;49.366;8.530;2023-08-24T02:46:28;4.73;;;4.17;;
5801;SDS011;2927;49.366;8.530;2023-08-24T02:48:54;5.97;;;5.37;;
5801;SDS011;2927;49.366;8.530;2023-08-24T02:51:23;12.40;;;5.20;;
5801;SDS011;2927;49.366;8.530;2023-08-24T02:53:49;7.00;;;4.10;;
5801;SDS011;2927;49.366;8.530;2023-08-24T02:56:15;6.60;;;5.93;;
5801;SDS011;2927;49.366;8.530;2023-08-24T02:58:40;8.40;;;5.70;;
5801;SDS011;2927;49.366;8.530;2023-08-24T03:01:06;7.30;;;5.50;;
5801;SDS011;2927;49.366;8.530;2023-08-24T03:03:32;7.80;;;5.73;;
5801;SDS011;2927;49.366;8.530;2023-08-24T03:06:01;7.20;;;5.90;;
5801;SDS011;2927;49.366;8.530;2023-08-24T03:08:28;6.17;;;4.93;;
5801;SDS011;2927;49.366;8.530;2023-08-24T03:10:55;7.37;;;4.97;;
5801;SDS011;2927;49.366;8.530;2023-08-24T03:13:20;6.53;;;5.53;;
5801;SDS011;2927;49.366;8.530;2023-08-24T03:15:46;8.23;;;5.03;;
5801;SDS011;2927;49.366;8.530;2023-08-24T03:18:12;6.63;;;4.60;;
5801;SDS011;2927;49.366;8.530;2023-08-24T03:20:39;6.33;;;4.80;;
5801;SDS011;2927;49.366;8.530;2023-08-24T03:23:05;12.23;;;5.17;;
5801;SDS011;2927;49.366;8.530;2023-08-24T03:25:34;7.70;;;5.10;;
5801;SDS011;2927;49.366;8.530;2023-08-24T03:28:01;8.13;;;5.53;;
5801;SDS011;2927;49.366;8.530;2023-08-24T03:30:27;5.80;;;5.30;;
5801;SDS011;2927;49.366;8.530;2023-08-24T03:32:52;5.77;;;5.17;;
5801;SDS011;2927;49.366;8.530;2023-08-24T03:35:18;10.67;;;5.67;;
5801;SDS011;2927;49.366;8.530;2023-08-24T03:37:43;8.50;;;6.30;;
5801;SDS011;2927;49.366;8.530;2023-08-24T03:40:09;7.00;;;5.07;;
5801;SDS011;2927;49.366;8.530;2023-08-24T03:42:35;8.60;;;6.00;;
5801;SDS011;2927;49.366;8.530;2023-08-24T03:45:00;7.37;;;5.20;;
5801;SDS011;2927;49.366;8.530;2023-08-24T03:47:26;10.87;;;5.80;;
5801;SDS011;2927;49.366;8.530;2023-08-24T03:49:52;7.90;;;5.60;;
5801;SDS011;2927;49.366;8.530;2023-08-24T03:52:17;6.50;;;5.40;;
5801;SDS011;2927;49.366;8.530;2023-08-24T03:54:43;8.00;;;5.30;;
5801;SDS011;2927;49.366;8.530;2023-08-24T03:57:08;6.10;;;5.57;;
5801;SDS011;2927;49.366;8.530;2023-08-24T03:59:34;7.93;;;6.03;;
5801;SDS011;2927;49.366;8.530;2023-08-24T04:02:00;6.60;;;5.90;;
5801;SDS011;2927;49.366;8.530;2023-08-24T04:04:28;18.77;;;7.10;;
5801;SDS011;2927;49.366;8.530;2023-08-24T04:06:55;10.60;;;6.40;;
5801;SDS011;2927;49.366;8.530;2023-08-24T04:09:20;9.70;;;6.40;;
5801;SDS011;2927;49.366;8.530;2023-08-24T04:11:46;7.40;;;5.67;;
5801;SDS011;2927;49.366;8.530;2023-08-24T04:14:11;5.67;;;5.13;;
5801;SDS011;2927;49.366;8.530;2023-08-24T04:16:37;11.33;;;6.83;;
5801;SDS011;2927;49.366;8.530;2023-08-24T04:19:03;8.63;;;5.33;;
5801;SDS011;2927;49.366;8.530;2023-08-24T04:21:28;11.03;;;4.63;;
5801;SDS011;2927;49.366;8.530;2023-08-24T04:23:54;6.30;;;5.70;;
5801;SDS011;2927;49.366;8.530;2023-08-24T04:26:19;14.10;;;5.67;;
5801;SDS011;2927;49.366;8.530;2023-08-24T04:28:45;6.60;;;5.20;;
5801;SDS011;2927;49.366;8.530;2023-08-24T04:31:10;10.80;;;5.87;;
5801;SDS011;2927;49.366;8.530;2023-08-24T04:33:36;9.77;;;6.27;;
5801;SDS011;2927;49.366;8.530;2023-08-24T04:36:02;6.10;;;4.83;;
5801;SDS011;2927;49.366;8.530;2023-08-24T04:38:30;5.70;;;5.20;;
5801;SDS011;2927;49.366;8.530;2023-08-24T04:40:56;7.23;;;6.30;;
5801;SDS011;2927;49.366;8.530;2023-08-24T04:43:22;9.23;;;5.53;;
5801;SDS011;2927;49.366;8.530;2023-08-24T04:45:53;8.60;;;5.00;;
5801;SDS011;2927;49.366;8.530;2023-08-24T04:48:23;6.53;;;5.87;;
5801;SDS011;2927;49.366;8.530;2023-08-24T04:50:50;7.67;;;6.00;;
5801;SDS011;2927;49.366;8.530;2023-08-24T04:53:17;7.07;;;5.90;;
5801;SDS011;2927;49.366;8.530;2023-08-24T04:55:44;11.07;;;6.73;;
5801;SDS011;2927;49.366;8.530;2023-08-24T04:58:10;8.30;;;5.80;;
5801;SDS011;2927;49.366;8.530;2023-08-24T05:00:36;8.40;;;5.53;;
5801;SDS011;2927;49.366;8.530;2023-08-24T05:03:03;6.47;;;5.83;;
5801;SDS011;2927;49.366;8.530;2023-08-24T05:05:30;6.93;;;5.73;;
5801;SDS011;2927;49.366;8.530;2023-08-24T05:07:56;8.47;;;5.83;;
5801;SDS011;2927;49.366;8.530;2023-08-24T05:10:22;9.90;;;5.90;;
5801;SDS011;2927;49.366;8.530;2023-08-24T05:12:48;6.30;;;5.70;;
5801;SDS011;2927;49.366;8.530;2023-08-24T05:15:14;6.87;;;5.50;;
5801;SDS011;2927;49.366;8.530;2023-08-24T05:17:39;8.13;;;5.83;;
5801;SDS011;2927;49.366;8.530;2023-08-24T05:20:06;8.03;;;6.30;;
5801;SDS011;2927;49.366;8.530;2023-08-24T05:22:33;6.10;;;5.30;;
5801;SDS011;2927;49.366;8.530;2023-08-24T05:24:59;6.00;;;5.47;;
5801;SDS011;2927;49.366;8.530;2023-08-24T05:27:24;5.97;;;5.30;;
5801;SDS011;2927;49.366;8.530;2023-08-24T05:29:50;7.87;;;5.90;;
5801;SDS011;2927;49.366;8.530;2023-08-24T05:32:15;8.60;;;6.00;;
5801;SDS011;2927;49.366;8.530;2023-08-24T05:34:41;7.70;;;5.77;;
5801;SDS011;2927;49.366;8.530;2023-08-24T05:37:07;12.73;;;5.70;;
5801;SDS011;2927;49.366;8.530;2023-08-24T05:39:32;11.93;;;6.30;;
5801;SDS011;2927;49.366;8.530;2023-08-24T05:41:58;8.90;;;4.70;;
5801;SDS011;2927;49.366;8.530;2023-08-24T05:44:24;6.90;;;5.70;;
5801;SDS011;2927;49.366;8.530;2023-08-24T05:46:49;7.67;;;5.40;;
5801;SDS011;2927;49.366;8.530;2023-08-24T05:49:15;6.40;;;4.77;;
5801;SDS011;2927;49.366;8.530;2023-08-24T05:51:40;8.80;;;5.30;;
5801;SDS011;2927;49.366;8.530;2023-08-24T05:54:06;7.60;;;5.93;;
5801;SDS011;2927;49.366;8.530;2023-08-24T05:56:32;10.83;;;5.00;;
5801;SDS011;2927;49.366;8.530;2023-08-24T05:58:58;13.23;;;5.70;;
5801;SDS011;2927;49.366;8.530;2023-08-24T06:01:24;10.43;;;5.90;;
5801;SDS011;2927;49.366;8.530;2023-08-24T06:03:50;11.33;;;5.43;;
5801;SDS011;2927;49.366;8.530;2023-08-24T06:06:15;12.10;;;5.50;;
5801;SDS011;2927;49.366;8.530;2023-08-24T06:08:42;9.30;;;5.80;;
5801;SDS011;2927;49.366;8.530;2023-08-24T06:11:08;7.70;;;4.87;;
5801;SDS011;2927;49.366;8.530;2023-08-24T06:13:34;16.40;;;5.60;;
5801;SDS011;2927;49.366;8.530;2023-08-24T06:15:59;9.83;;;5.23;;
5801;SDS011;2927;49.366;8.530;2023-08-24T06:18:25;7.73;;;4.70;;
5801;SDS011;2927;49.366;8.530;2023-08-24T06:20:51;8.67;;;5.07;;
5801;SDS011;2927;49.366;8.530;2023-08-24T06:23:17;4.93;;;4.30;;
5801;SDS011;2927;49.366;8.530;2023-08-24T06:25:43;9.90;;;5.93;;
5801;SDS011;2927;49.366;8.530;2023-08-24T06:28:09;6.30;;;4.80;;
5801;SDS011;2927;49.366;8.530;2023-08-24T06:30:38;6.93;;;5.97;;
5801;SDS011;2927;49.366;8.530;2023-08-24T06:33:05;10.80;;;5.70;;
5801;SDS011;2927;49.366;8.530;2023-08-24T06:35:31;5.90;;;4.37;;
5801;SDS011;2927;49.366;8.530;2023-08-24T06:38:00;6.13;;;4.13;;
5801;SDS011;2927;49.366;8.530;2023-08-24T06:40:26;4.87;;;4.50;;
5801;SDS011;2927;49.366;8.530;2023-08-24T06:42:51;7.23;;;4.77;;
5801;SDS011;2927;49.366;8.530;2023-08-24T06:45:17;6.87;;;5.30;;
5801;SDS011;2927;49.366;8.530;2023-08-24T06:47:43;4.90;;;4.40;;
5801;SDS011;2927;49.366;8.530;2023-08-24T06:50:09;13.53;;;5.83;;
5801;SDS011;2927;49.366;8.530;2023-08-24T06:52:35;6.60;;;5.07;;
5801;SDS011;2927;49.366;8.530;2023-08-24T06:55:00;10.63;;;5.20;;
5801;SDS011;2927;49.366;8.530;2023-08-24T06:57:26;6.33;;;5.00;;
5801;SDS011;2927;49.366;8.530;2023-08-24T06:59:52;6.40;;;5.20;;
5801;SDS011;2927;49.366;8.530;2023-08-24T07:02:17;7.27;;;5.07;;
5801;SDS011;2927;49.366;8.530;2023-08-24T07:04:43;8.37;;;5.10;;
5801;SDS011;2927;49.366;8.530;2023-08-24T07:07:09;5.87;;;5.30;;
5801;SDS011;2927;49.366;8.530;2023-08-24T07:09:35;7.33;;;5.30;;
5801;SDS011;2927;49.366;8.530;2023-08-24T07:12:04;6.43;;;4.67;;
5801;SDS011;2927;49.366;8.530;2023-08-24T07:14:32;9.37;;;5.57;;
5801;SDS011;2927;49.366;8.530;2023-08-24T07:16:58;7.80;;;5.07;;
5801;SDS011;2927;49.366;8.530;2023-08-24T07:19:24;6.10;;;5.43;;
5801;SDS011;2927;49.366;8.530;2023-08-24T07:21:49;5.03;;;4.53;;
5801;SDS011;2927;49.366;8.530;2023-08-24T07:24:15;7.57;;;3.93;;
5801;SDS011;2927;49.366;8.530;2023-08-24T07:26:44;9.20;;;5.00;;
5801;SDS011;2927;49.366;8.530;2023-08-24T07:29:10;5.17;;;4.67;;
5801;SDS011;2927;49.366;8.530;2023-08-24T07:31:36;5.10;;;4.10;;
5801;SDS011;2927;49.366;8.530;2023-08-24T07:34:01;5.27;;;4.77;;
5801;SDS011;2927;49.366;8.530;2023-08-24T07:36:28;4.10;;;3.40;;
5801;SDS011;2927;49.366;8.530;2023-08-24T07:38:54;9.20;;;4.40;;
5801;SDS011;2927;49.366;8.530;2023-08-24T07:41:19;14.90;;;4.87;;
5801;SDS011;2927;49.366;8.530;2023-08-24T07:43:45;5.70;;;3.53;;
5801;SDS011;2927;49.366;8.530;2023-08-24T07:46:11;4.80;;;3.67;;
5801;SDS011;2927;49.366;8.530;2023-08-24T07:48:36;6.83;;;4.00;;
5801;SDS011;2927;49.366;8.530;2023-08-24T07:51:02;8.10;;;3.60;;
5801;SDS011;2927;49.366;8.530;2023-08-24T07:53:27;3.43;;;3.13;;
5801;SDS011;2927;49.366;8.530;2023-08-24T07:55:54;6.03;;;3.53;;
5801;SDS011;2927;49.366;8.530;2023-08-24T07:58:22;8.23;;;3.90;;
5801;SDS011;2927;49.366;8.530;2023-08-24T08:00:51;3.93;;;3.53;;
5801;SDS011;2927;49.366;8.530;2023-08-24T08:03:17;5.33;;;4.00;;
5801;SDS011;2927;49.366;8.530;2023-08-24T08:05:44;4.37;;;3.90;;
5801;SDS011;2927;49.366;8.530;2023-08-24T08:08:10;3.70;;;3.40;;
5801;SDS011;2927;49.366;8.530;2023-08-24T08:10:36;4.60;;;3.70;;
5801;SDS011;2927;49.366;8.530;2023-08-24T08:13:01;5.03;;;3.50;;
5801;SDS011;2927;49.366;8.530;2023-08-24T08:15:27;4.43;;;3.63;;
5801;SDS011;2927;49.366;8.530;2023-08-24T08:17:52;2.60;;;2.50;;
5801;SDS011;2927;49.366;8.530;2023-08-24T08:20:18;3.78;;;2.80;;
5801;SDS011;2927;49.366;8.530;2023-08-24T08:22:44;4.75;;;3.15;;
5801;SDS011;2927;49.366;8.530;2023-08-24T08:25:09;3.13;;;2.92;;
5801;SDS011;2927;49.366;8.530;2023-08-24T08:27:37;5.15;;;2.97;;
5801;SDS011;2927;49.366;8.530;2023-08-24T08:30:02;3.03;;;2.72;;
5801;SDS011;2927;49.366;8.530;2023-08-24T08:32:30;3.20;;;2.60;;
5801;SDS011;2927;49.366;8.530;2023-08-24T08:34:55;3.70;;;2.55;;
5801;SDS011;2927;49.366;8.530;2023-08-24T08:37:25;2.42;;;2.33;;
5801;SDS011;2927;49.366;8.530;2023-08-24T08:39:51;2.53;;;2.33;;
5801;SDS011;2927;49.366;8.530;2023-08-24T08:42:17;2.38;;;2.25;;
5801;SDS011;2927;49.366;8.530;2023-08-24T08:44:43;2.28;;;2.13;;
5801;SDS011;2927;49.366;8.530;2023-08-24T08:47:13;2.40;;;2.20;;
5801;SDS011;2927;49.366;8.530;2023-08-24T08:49:40;2.00;;;1.90;;
5801;SDS011;2927;49.366;8.530;2023-08-24T08:52:10;2.10;;;2.00;;
5801;SDS011;2927;49.366;8.530;2023-08-24T08:54:36;2.00;;;1.95;;
5801;SDS011;2927;49.366;8.530;2023-08-24T08:57:02;1.83;;;1.73;;
5801;SDS011;2927;49.366;8.530;2023-08-24T08:59:29;2.58;;;1.77;;
5801;SDS011;2927;49.366;8.530;2023-08-24T09:02:00;2.13;;;2.03;;
5801;SDS011;2927;49.366;8.530;2023-08-24T09:04:27;2.42;;;2.20;;
5801;SDS011;2927;49.366;8.530;2023-08-24T09:06:57;1.92;;;1.83;;
5801;SDS011;2927;49.366;8.530;2023-08-24T09:09:23;2.60;;;2.40;;
5801;SDS011;2927;49.366;8.530;2023-08-24T09:11:50;1.60;;;1.60;;
5801;SDS011;2927;49.366;8.530;2023-08-24T09:14:16;1.30;;;1.30;;
5801;SDS011;2927;49.366;8.530;2023-08-24T09:16:41;2.10;;;2.00;;
5801;SDS011;2927;49.366;8.530;2023-08-24T09:19:10;1.83;;;1.75;;
5801;SDS011;2927;49.366;8.530;2023-08-24T09:21:39;2.53;;;1.90;;
5801;SDS011;2927;49.366;8.530;2023-08-24T09:24:06;2.65;;;2.45;;
5801;SDS011;2927;49.366;8.530;2023-08-24T09:26:36;1.98;;;1.88;;
5801;SDS011;2927;49.366;8.530;2023-08-24T09:29:11;2.00;;;1.77;;
5801;SDS011;2927;49.366;8.530;2023-08-24T09:31:41;2.35;;;2.25;;
5801;SDS011;2927;49.366;8.530;2023-08-24T09:34:09;6.80;;;1.85;;
5801;SDS011;2927;49.366;8.530;2023-08-24T09:36:35;1.67;;;1.58;;
5801;SDS011;2927;49.366;8.530;2023-08-24T09:39:02;1.90;;;1.80;;
5801;SDS011;2927;49.366;8.530;2023-08-24T09:41:44;1.67;;;1.60;;
5801;SDS011;2927;49.366;8.530;2023-08-24T09:44:19;1.42;;;1.30;;
5801;SDS011;2927;49.366;8.530;2023-08-24T09:46:45;3.97;;;2.10;;
5801;SDS011;2927;49.366;8.530;2023-08-24T09:49:11;2.10;;;1.92;;
5801;SDS011;2927;49.366;8.530;2023-08-24T09:51:38;2.35;;;1.63;;
5801;SDS011;2927;49.366;8.530;2023-08-24T09:54:08;1.60;;;1.50;;
5801;SDS011;2927;49.366;8.530;2023-08-24T09:56:35;1.90;;;1.77;;
5801;SDS011;2927;49.366;8.530;2023-08-24T09:59:16;2.25;;;1.95;;
5801;SDS011;2927;49.366;8.530;2023-08-24T10:01:49;3.03;;;1.83;;
5801;SDS011;2927;49.366;8.530;2023-08-24T10:04:17;1.40;;;1.40;;
5801;SDS011;2927;49.366;8.530;2023-08-24T10:06:47;1.83;;;1.83;;
5801;SDS011;2927;49.366;8.530;2023-08-24T10:09:31;1.95;;;1.85;;
5801;SDS011;2927;49.366;8.530;2023-08-24T10:12:00;2.25;;;1.88;;
5801;SDS011;2927;49.366;8.530;2023-08-24T10:14:31;2.45;;;2.28;;
5801;SDS011;2927;49.366;8.530;2023-08-24T10:17:00;1.77;;;1.52;;
5801;SDS011;2927;49.366;8.530;2023-08-24T10:19:27;2.15;;;1.55;;
5801;SDS011;2927;49.366;8.530;2023-08-24T10:21:54;4.65;;;2.35;;
5801;SDS011;2927;49.366;8.530;2023-08-24T10:24:23;2.20;;;2.00;;
5801;SDS011;2927;49.366;8.530;2023-08-24T10:26:49;2.85;;;2.42;;
5801;SDS011;2927;49.366;8.530;2023-08-24T10:29:16;1.83;;;1.73;;
5801;SDS011;2927;49.366;8.530;2023-08-24T10:31:42;2.17;;;2.08;;
5801;SDS011;2927;49.366;8.530;2023-08-24T10:34:09;1.85;;;1.75;;
5801;SDS011;2927;49.366;8.530;2023-08-24T10:36:34;2.10;;;2.00;;
5801;SDS011;2927;49.366;8.530;2023-08-24T10:39:03;3.03;;;2.00;;
5801;SDS011;2927;49.366;8.530;2023-08-24T10:41:45;2.70;;;2.50;;
5801;SDS011;2927;49.366;8.530;2023-08-24T10:44:19;9.63;;;2.72;;
5801;SDS011;2927;49.366;8.530;2023-08-24T10:47:15;3.80;;;1.77;;
5801;SDS011;2927;49.366;8.530;2023-08-24T10:52:23;2.72;;;2.50;;
5801;SDS011;2927;49.366;8.530;2023-08-24T10:55:00;2.03;;;1.92;;
5801;SDS011;2927;49.366;8.530;2023-08-24T10:57:37;2.17;;;1.98;;
5801;SDS011;2927;49.366;8.530;2023-08-24T11:03:07;2.63;;;2.42;;
5801;SDS011;2927;49.366;8.530;2023-08-24T11:05:27;2.85;;;2.65;;
5801;SDS011;2927;49.366;8.530;2023-08-24T11:08:02;3.10;;;2.40;;
5801;SDS011;2927;49.366;8.530;2023-08-24T11:20:44;2.83;;;2.63;;
5801;SDS011;2927;49.366;8.530;2023-08-24T11:23:10;2.92;;;2.72;;
5801;SDS011;2927;49.366;8.530;2023-08-24T11:25:36;2.80;;;2.60;;
5801;SDS011;2927;49.366;8.530;2023-08-24T11:28:04;3.25;;;2.38;;
5801;SDS011;2927;49.366;8.530;2023-08-24T11:30:31;2.20;;;2.10;;
5801;SDS011;2927;49.366;8.530;2023-08-24T11:32:58;3.08;;;2.33;;
5801;SDS011;2927;49.366;8.530;2023-08-24T11:35:23;12.07;;;2.45;;
5801;SDS011;2927;49.366;8.530;2023-08-24T11:37:55;2.35;;;2.20;;
5801;SDS011;2927;49.366;8.530;2023-08-24T11:40:22;3.33;;;2.10;;
5801;SDS011;2927;49.366;8.530;2023-08-24T11:42:55;5.45;;;2.45;;
5801;SDS011;2927;49.366;8.530;2023-08-24T11:45:21;5.20;;;3.00;;
5801;SDS011;2927;49.366;8.530;2023-08-24T11:47:48;4.15;;;2.40;;
5801;SDS011;2927;49.366;8.530;2023-08-24T11:50:18;3.40;;;2.42;;
5801;SDS011;2927;49.366;8.530;2023-08-24T11:52:44;4.90;;;2.85;;
5801;SDS011;2927;49.366;8.530;2023-08-24T11:55:10;4.03;;;2.67;;
5801;SDS011;2927;49.366;8.530;2023-08-24T11:57:36;3.22;;;2.67;;
5801;SDS011;2927;49.366;8.530;2023-08-24T12:00:03;3.60;;;3.08;;
5801;SDS011;2927;49.366;8.530;2023-08-24T12:02:30;3.28;;;2.75;;
5801;SDS011;2927;49.366;8.530;2023-08-24T12:04:56;3.45;;;2.83;;
5801;SDS011;2927;49.366;8.530;2023-08-24T12:07:23;5.80;;;2.72;;
5801;SDS011;2927;49.366;8.530;2023-08-24T12:09:49;2.22;;;2.08;;
5801;SDS011;2927;49.366;8.530;2023-08-24T12:12:17;2.60;;;2.50;;
5801;SDS011;2927;49.366;8.530;2023-08-24T12:14:45;2.90;;;2.80;;
5801;SDS011;2927;49.366;8.530;2023-08-24T12:17:12;2.60;;;2.38;;
5801;SDS011;2927;49.366;8.530;2023-08-24T12:20:00;3.70;;;2.60;;
5801;SDS011;2927;49.366;8.530;2023-08-24T12:22:31;5.70;;;3.00;;
5801;SDS011;2927;49.366;8.530;2023-08-24T12:24:56;3.17;;;2.95;;
5801;SDS011;2927;49.366;8.530;2023-08-24T12:27:23;4.63;;;2.47;;
5801;SDS011;2927;49.366;8.530;2023-08-24T12:29:49;3.25;;;3.05;;
5801;SDS011;2927;49.366;8.530;2023-08-24T12:32:15;2.95;;;2.70;;
5801;SDS011;2927;49.366;8.530;2023-08-24T12:34:44;2.67;;;2.47;;
5801;SDS011;2927;49.366;8.530;2023-08-24T12:37:10;2.40;;;2.30;;
5801;SDS011;2927;49.366;8.530;2023-08-24T12:39:36;3.47;;;3.17;;
5801;SDS011;2927;49.366;8.530;2023-08-24T12:42:02;2.85;;;2.08;;
5801;SDS011;2927;49.366;8.530;2023-08-24T12:44:28;3.45;;;2.22;;
5801;SDS011;2927;49.366;8.530;2023-08-24T12:46:54;3.28;;;2.97;;
5801;SDS011;2927;49.366;8.530;2023-08-24T12:49:19;3.85;;;3.08;;
5801;SDS011;2927;49.366;8.530;2023-08-24T12:51:45;2.78;;;2.58;;
5801;SDS011;2927;49.366;8.530;2023-08-24T12:54:11;2.90;;;2.60;;
5801;SDS011;2927;49.366;8.530;2023-08-24T12:56:38;2.80;;;2.65;;
5801;SDS011;2927;49.366;8.530;2023-08-24T12:59:07;5.07;;;2.70;;
5801;SDS011;2927;49.366;8.530;2023-08-24T13:01:33;4.88;;;3.15;;
5801;SDS011;2927;49.366;8.530;2023-08-24T13:03:58;2.58;;;2.42;;
5801;SDS011;2927;49.366;8.530;2023-08-24T13:06:24;8.88;;;2.80;;
5801;SDS011;2927;49.366;8.530;2023-08-24T13:08:50;4.80;;;3.20;;
5801;SDS011;2927;49.366;8.530;2023-08-24T13:11:16;3.03;;;2.83;;
5801;SDS011;2927;49.366;8.530;2023-08-24T13:13:41;3.50;;;3.10;;
5801;SDS011;2927;49.366;8.530;2023-08-24T13:16:07;3.03;;;2.83;;
5801;SDS011;2927;49.366;8.530;2023-08-24T13:18:32;4.90;;;2.80;;
5801;SDS011;2927;49.366;8.530;2023-08-24T13:20:58;3.67;;;2.78;;
5801;SDS011;2927;49.366;8.530;2023-08-24T13:23:23;4.22;;;2.80;;
5801;SDS011;2927;49.366;8.530;2023-08-24T13:25:49;2.72;;;2.53;;
5801;SDS011;2927;49.366;8.530;2023-08-24T13:28:15;3.20;;;2.90;;
5801;SDS011;2927;49.366;8.530;2023-08-24T13:30:40;3.35;;;2.60;;
5801;SDS011;2927;49.366;8.530;2023-08-24T13:33:06;3.38;;;3.15;;
5801;SDS011;2927;49.366;8.530;2023-08-24T13:35:32;4.70;;;3.25;;
5801;SDS011;2927;49.366;8.530;2023-08-24T13:37:57;4.15;;;2.95;;
5801;SDS011;2927;49.366;8.530;2023-08-24T13:40:23;5.22;;;2.63;;
5801;SDS011;2927;49.366;8.530;2023-08-24T13:42:49;3.03;;;2.80;;
5801;SDS011;2927;49.366;8.530;2023-08-24T13:45:14;3.45;;;2.78;;
5801;SDS011;2927;49.366;8.530;2023-08-24T13:47:40;2.63;;;2.42;;
5801;SDS011;2927;49.366;8.530;2023-08-24T13:50:06;3.25;;;2.42;;
5801;SDS011;2927;49.366;8.530;2023-08-24T13:52:32;5.05;;;3.03;;
5801;SDS011;2927;49.366;8.530;2023-08-24T13:54:58;2.60;;;2.50;;
5801;SDS011;2927;49.366;8.530;2023-08-24T13:57:24;4.00;;;3.53;;
5801;SDS011;2927;49.366;8.530;2023-08-24T13:59:49;6.32;;;3.47;;
5801;SDS011;2927;49.366;8.530;2023-08-24T14:02:15;3.33;;;2.63;;
5801;SDS011;2927;49.366;8.530;2023-08-24T14:04:41;3.13;;;2.92;;
5801;SDS011;2927;49.366;8.530;2023-08-24T14:07:06;3.30;;;3.15;;
5801;SDS011;2927;49.366;8.530;2023-08-24T14:09:32;3.45;;;3.25;;
5801;SDS011;2927;49.366;8.530;2023-08-24T14:11:58;3.30;;;2.83;;
5801;SDS011;2927;49.366;8.530;2023-08-24T14:14:23;3.92;;;3.20;;
5801;SDS011;2927;49.366;8.530;2023-08-24T14:16:53;3.67;;;3.28;;
5801;SDS011;2927;49.366;8.530;2023-08-24T14:19:20;4.03;;;3.10;;
5801;SDS011;2927;49.366;8.530;2023-08-24T14:21:45;3.38;;;2.53;;
5801;SDS011;2927;49.366;8.530;2023-08-24T14:24:11;5.93;;;3.55;;
5801;SDS011;2927;49.366;8.530;2023-08-24T14:26:36;9.10;;;3.47;;
5801;SDS011;2927;49.366;8.530;2023-08-24T14:29:04;6.17;;;3.10;;
5801;SDS011;2927;49.366;8.530;2023-08-24T14:31:29;5.97;;;3.65;;
5801;SDS011;2927;49.366;8.530;2023-08-24T14:33:55;3.45;;;3.15;;
5801;SDS011;2927;49.366;8.530;2023-08-24T14:36:21;5.32;;;3.45;;
5801;SDS011;2927;49.366;8.530;2023-08-24T14:38:48;3.58;;;2.80;;
5801;SDS011;2927;49.366;8.530;2023-08-24T14:41:14;4.70;;;3.15;;
5801;SDS011;2927;49.366;8.530;2023-08-24T14:43:40;4.17;;;2.90;;
5801;SDS011;2927;49.366;8.530;2023-08-24T14:46:06;6.00;;;3.20;;
5801;SDS011;2927;49.366;8.530;2023-08-24T14:48:32;12.65;;;4.72;;
5801;SDS011;2927;49.366;8.530;2023-08-24T14:50:58;10.55;;;3.72;;
5801;SDS011;2927;49.366;8.530;2023-08-24T14:53:24;7.22;;;4.05;;
5801;SDS011;2927;49.366;8.530;2023-08-24T14:55:52;10.70;;;4.40;;
5801;SDS011;2927;49.366;8.530;2023-08-24T14:58:18;5.00;;;4.47;;
5801;SDS011;2927;49.366;8.530;2023-08-24T15:00:45;9.33;;;4.73;;
5801;SDS011;2927;49.366;8.530;2023-08-24T15:03:13;5.40;;;4.90;;
5801;SDS011;2927;49.366;8.530;2023-08-24T15:05:43;7.05;;;4.50;;
5801;SDS011;2927;49.366;8.530;2023-08-24T15:08:13;6.07;;;4.85;;
5801;SDS011;2927;49.366;8.530;2023-08-24T15:10:39;5.37;;;4.33;;
5801;SDS011;2927;49.366;8.530;2023-08-24T15:13:05;10.47;;;4.70;;
5801;SDS011;2927;49.366;8.530;2023-08-24T15:15:31;8.63;;;4.77;;
5801;SDS011;2927;49.366;8.530;2023-08-24T15:18:00;8.27;;;4.60;;
5801;SDS011;2927;49.366;8.530;2023-08-24T15:20:25;7.67;;;4.97;;
5801;SDS011;2927;49.366;8.530;2023-08-24T15:22:51;6.07;;;4.40;;
5801;SDS011;2927;49.366;8.530;2023-08-24T15:25:16;4.30;;;3.90;;
5801;SDS011;2927;49.366;8.530;2023-08-24T15:27:42;7.07;;;4.47;;
5801;SDS011;2927;49.366;8.530;2023-08-24T15:30:08;12.17;;;4.17;;
5801;SDS011;2927;49.366;8.530;2023-08-24T15:32:34;3.90;;;3.60;;
5801;SDS011;2927;49.366;8.530;2023-08-24T15:35:00;5.47;;;4.00;;
5801;SDS011;2927;49.366;8.530;2023-08-24T15:37:26;6.07;;;3.90;;